createdAt,value
2017-05-14T00:00:30.973Z,8.9
2017-05-14T00:01:49.661Z,8.9
2017-05-14T00:03:08.344Z,8.9
2017-05-14T00:04:27.018Z,8.9
2017-05-14T00:05:45.710Z,8.9
2017-05-14T00:07:04.342Z,9
2017-05-14T00:08:22.977Z,9
2017-05-14T00:09:41.603Z,9
2017-05-14T00:11:00.237Z,9
2017-05-14T00:12:18.901Z,9
2017-05-14T00:13:37.585Z,9.1
2017-05-14T00:14:56.218Z,9.2
2017-05-14T00:16:14.847Z,9.3
2017-05-14T00:17:33.478Z,9.3
2017-05-14T00:18:52.176Z,9.3
2017-05-14T00:20:10.805Z,9.2
2017-05-14T00:21:29.475Z,9.2
2017-05-14T00:22:48.110Z,9.2
2017-05-14T00:24:06.744Z,9.3
2017-05-14T00:25:25.375Z,9.3
2017-05-14T00:26:44.013Z,9.3
2017-05-14T00:28:02.671Z,9.4
2017-05-14T00:29:21.309Z,9.5
2017-05-14T00:30:39.943Z,9.5
2017-05-14T00:31:58.592Z,9.6
2017-05-14T00:33:17.223Z,9.6
2017-05-14T00:34:35.859Z,9.6
2017-05-14T00:35:54.524Z,9.6
2017-05-14T00:37:13.183Z,9.6
2017-05-14T00:38:31.820Z,9.6
2017-05-14T00:39:50.450Z,9.6
2017-05-14T00:41:09.085Z,9.6
2017-05-14T00:42:27.720Z,9.6
2017-05-14T00:43:46.349Z,9.6
2017-05-14T00:45:05.026Z,9.6
2017-05-14T00:46:23.734Z,9.6
2017-05-14T00:47:42.374Z,9.7
2017-05-14T00:49:01.015Z,9.7
2017-05-14T00:50:19.669Z,9.8
2017-05-14T00:51:38.311Z,9.8
2017-05-14T00:52:57.011Z,9.8
2017-05-14T00:54:15.646Z,9.8
2017-05-14T00:55:34.277Z,9.8
2017-05-14T00:56:52.910Z,9.9
2017-05-14T00:58:11.543Z,9.9
2017-05-14T00:59:30.171Z,9.9
2017-05-14T01:00:48.829Z,10
2017-05-14T01:02:07.523Z,10
2017-05-14T01:03:26.173Z,10.1
2017-05-14T01:04:44.869Z,10.1
2017-05-14T01:06:03.542Z,10.1
2017-05-14T01:07:22.187Z,10.1
2017-05-14T01:08:40.911Z,10.1
2017-05-14T01:09:59.572Z,10.1
2017-05-14T01:11:18.271Z,10.1
2017-05-14T01:12:36.991Z,10.1
2017-05-14T01:13:55.694Z,10.1
2017-05-14T01:15:14.394Z,10.2
2017-05-14T01:16:33.069Z,10.3
2017-05-14T01:17:51.726Z,10.3
2017-05-14T01:19:10.400Z,10.3
2017-05-14T01:20:29.052Z,10.3
2017-05-14T01:21:47.700Z,10.3
2017-05-14T01:23:06.346Z,10.3
2017-05-14T01:24:25.001Z,10.3
2017-05-14T01:25:43.671Z,10.3
2017-05-14T01:27:02.320Z,10.3
2017-05-14T01:28:20.967Z,10.4
2017-05-14T01:29:39.620Z,10.4
2017-05-14T01:30:58.325Z,10.3
2017-05-14T01:32:16.982Z,10.3
2017-05-14T01:33:35.638Z,10.3
2017-05-14T01:34:54.293Z,10.3
2017-05-14T01:36:12.950Z,10.3
2017-05-14T01:37:31.598Z,10.3
2017-05-14T01:38:50.263Z,10.3
2017-05-14T01:40:08.941Z,10.3
2017-05-14T01:41:27.590Z,10.3
2017-05-14T01:42:46.288Z,10.3
2017-05-14T01:44:04.941Z,10.3
2017-05-14T01:45:23.603Z,10.3
2017-05-14T01:46:42.262Z,10.3
2017-05-14T01:48:00.920Z,10.4
2017-05-14T01:49:19.629Z,10.5
2017-05-14T01:50:38.299Z,10.6
2017-05-14T01:51:56.944Z,10.6
2017-05-14T01:53:15.598Z,10.6
2017-05-14T01:54:34.249Z,10.6
2017-05-14T01:55:52.925Z,10.5
2017-05-14T01:57:11.574Z,10.5
2017-05-14T01:58:30.229Z,10.6
2017-05-14T01:59:48.884Z,10.6
2017-05-14T02:01:07.531Z,10.6
2017-05-14T02:02:26.242Z,10.6
2017-05-14T02:03:44.902Z,10.6
2017-05-14T02:05:03.556Z,10.6
2017-05-14T02:06:22.213Z,10.6
2017-05-14T02:07:40.878Z,10.6
2017-05-14T02:08:59.586Z,10.6
2017-05-14T02:10:18.270Z,10.6
2017-05-14T02:11:36.931Z,10.6
2017-05-14T02:12:55.620Z,10.6
2017-05-14T02:14:14.312Z,10.6
2017-05-14T02:15:32.967Z,10.6
2017-05-14T02:16:51.630Z,10.7
2017-05-14T02:18:10.276Z,10.8
2017-05-14T02:19:28.937Z,10.9
2017-05-14T02:20:47.589Z,10.9
2017-05-14T02:22:06.247Z,11
2017-05-14T02:23:24.891Z,11
2017-05-14T02:24:43.579Z,11
2017-05-14T02:26:02.241Z,11
2017-05-14T02:27:20.955Z,11
2017-05-14T02:28:39.656Z,11.1
2017-05-14T02:29:58.338Z,11
2017-05-14T02:31:17.015Z,11
2017-05-14T02:32:35.707Z,11
2017-05-14T02:33:54.366Z,11
2017-05-14T02:35:13.036Z,11
2017-05-14T02:36:31.718Z,11
2017-05-14T02:37:50.406Z,11
2017-05-14T02:39:09.086Z,11
2017-05-14T02:40:27.737Z,11
2017-05-14T02:41:46.388Z,11
2017-05-14T02:43:05.055Z,11
2017-05-14T02:44:23.707Z,11
2017-05-14T02:45:42.367Z,10.9
2017-05-14T02:47:01.022Z,10.9
2017-05-14T02:48:19.723Z,10.9
2017-05-14T02:49:38.380Z,10.9
2017-05-14T02:50:57.024Z,10.9
2017-05-14T02:52:15.704Z,10.9
2017-05-14T02:53:34.359Z,10.9
2017-05-14T02:54:53.070Z,10.9
2017-05-14T02:56:11.747Z,10.9
2017-05-14T02:57:30.397Z,11
2017-05-14T02:58:49.075Z,10.9
2017-05-14T03:00:07.725Z,10.9
2017-05-14T03:01:26.377Z,10.9
2017-05-14T03:02:45.050Z,11
2017-05-14T03:04:03.700Z,11
2017-05-14T03:05:22.351Z,10.9
2017-05-14T03:06:41.003Z,10.9
2017-05-14T03:07:59.657Z,10.9
2017-05-14T03:09:18.316Z,10.9
2017-05-14T03:10:37.006Z,10.9
2017-05-14T03:11:55.663Z,10.9
2017-05-14T03:13:14.314Z,10.9
2017-05-14T03:14:33.055Z,10.9
2017-05-14T03:15:51.701Z,10.9
2017-05-14T03:17:10.353Z,10.9
2017-05-14T03:18:29.022Z,11
2017-05-14T03:19:47.670Z,11
2017-05-14T03:21:06.365Z,11
2017-05-14T03:22:25.009Z,11
2017-05-14T03:23:43.698Z,11
2017-05-14T03:25:02.400Z,11
2017-05-14T03:26:21.067Z,11
2017-05-14T03:27:39.769Z,11
2017-05-14T03:28:58.425Z,11
2017-05-14T03:30:17.129Z,11
2017-05-14T03:31:35.773Z,11
2017-05-14T03:32:54.426Z,11
2017-05-14T03:34:13.105Z,11
2017-05-14T03:35:31.760Z,11
2017-05-14T03:36:50.416Z,11
2017-05-14T03:38:09.116Z,11.1
2017-05-14T03:39:27.833Z,11.1
2017-05-14T03:40:46.493Z,11.1
2017-05-14T03:42:05.189Z,11.1
2017-05-14T03:43:23.842Z,11.1
2017-05-14T03:44:42.496Z,11.1
2017-05-14T03:46:01.180Z,11
2017-05-14T03:47:19.828Z,11
2017-05-14T03:48:38.483Z,11
2017-05-14T03:49:57.189Z,11
2017-05-14T03:51:15.842Z,11
2017-05-14T03:52:34.547Z,11.1
2017-05-14T03:53:53.230Z,11.1
2017-05-14T03:55:11.937Z,11.1
2017-05-14T03:56:30.584Z,11.1
2017-05-14T03:57:49.260Z,11.1
2017-05-14T03:59:07.989Z,11.1
2017-05-14T04:00:26.640Z,11.1
2017-05-14T04:01:45.319Z,11.1
2017-05-14T04:03:03.970Z,11.1
2017-05-14T04:04:22.630Z,11.1
2017-05-14T04:05:41.304Z,11.1
2017-05-14T04:07:00.007Z,11.2
2017-05-14T04:08:18.658Z,11.2
2017-05-14T04:09:37.311Z,11.2
2017-05-14T04:10:56.013Z,11.3
2017-05-14T04:12:14.674Z,11.3
2017-05-14T04:13:33.329Z,11.3
2017-05-14T04:14:51.984Z,11.3
2017-05-14T04:16:10.634Z,11.4
2017-05-14T04:17:29.323Z,11.4
2017-05-14T04:18:47.983Z,11.4
2017-05-14T04:20:06.628Z,11.5
2017-05-14T04:21:25.283Z,11.5
2017-05-14T04:22:43.933Z,11.5
2017-05-14T04:24:02.597Z,11.6
2017-05-14T04:25:21.254Z,11.6
2017-05-14T04:26:39.926Z,11.6
2017-05-14T04:27:58.598Z,11.7
2017-05-14T04:29:17.260Z,11.7
2017-05-14T04:30:35.967Z,11.7
2017-05-14T04:31:54.613Z,11.7
2017-05-14T04:33:13.290Z,11.7
2017-05-14T04:34:31.979Z,11.8
2017-05-14T04:35:50.642Z,11.9
2017-05-14T04:37:09.322Z,11.9
2017-05-14T04:38:28.006Z,12
2017-05-14T04:39:46.652Z,12
2017-05-14T04:41:05.307Z,12
2017-05-14T04:42:23.964Z,12.1
2017-05-14T04:43:42.684Z,12.2
2017-05-14T04:45:01.376Z,12.2
2017-05-14T04:46:20.043Z,12.3
2017-05-14T04:47:38.726Z,12.3
2017-05-14T04:48:57.438Z,12.3
2017-05-14T04:50:16.137Z,12.4
2017-05-14T04:51:34.787Z,12.4
2017-05-14T04:52:53.435Z,12.5
2017-05-14T04:54:12.082Z,12.5
2017-05-14T04:55:30.727Z,12.5
2017-05-14T04:56:49.380Z,12.5
2017-05-14T04:58:08.027Z,12.6
2017-05-14T04:59:26.695Z,12.6
2017-05-14T05:00:45.350Z,12.7
2017-05-14T05:02:04.010Z,12.7
2017-05-14T05:03:22.739Z,12.7
2017-05-14T05:04:41.400Z,12.6
2017-05-14T05:06:00.055Z,12.6
2017-05-14T05:07:18.699Z,12.6
2017-05-14T05:08:37.409Z,12.5
2017-05-14T05:09:56.111Z,12.5
2017-05-14T05:11:14.793Z,12.5
2017-05-14T05:12:33.490Z,12.4
2017-05-14T05:13:52.182Z,12.4
2017-05-14T05:15:10.894Z,12.4
2017-05-14T05:16:29.541Z,12.4
2017-05-14T05:17:48.195Z,12.4
2017-05-14T05:19:06.846Z,12.4
2017-05-14T05:20:25.550Z,12.4
2017-05-14T05:21:44.218Z,12.4
2017-05-14T05:23:02.870Z,12.4
2017-05-14T05:24:21.519Z,12.4
2017-05-14T05:25:40.164Z,12.4
2017-05-14T05:26:58.866Z,12.4
2017-05-14T05:28:17.565Z,12.4
2017-05-14T05:29:36.220Z,12.4
2017-05-14T05:30:54.869Z,12.4
2017-05-14T05:32:13.521Z,12.4
2017-05-14T05:33:32.188Z,12.4
2017-05-14T05:34:50.921Z,12.5
2017-05-14T05:36:09.582Z,12.5
2017-05-14T05:37:28.231Z,12.5
2017-05-14T05:38:46.884Z,12.5
2017-05-14T05:40:05.534Z,12.5
2017-05-14T05:41:24.180Z,12.6
2017-05-14T05:42:42.834Z,12.6
2017-05-14T05:44:01.486Z,12.6
2017-05-14T05:45:20.132Z,12.6
2017-05-14T05:46:38.794Z,12.7
2017-05-14T05:47:57.507Z,12.7
2017-05-14T05:49:16.177Z,12.7
2017-05-14T05:50:34.875Z,12.8
2017-05-14T05:51:53.556Z,12.8
2017-05-14T05:53:12.210Z,12.8
2017-05-14T05:54:30.876Z,12.9
2017-05-14T05:55:49.545Z,12.9
2017-05-14T05:57:08.252Z,12.9
2017-05-14T05:58:26.908Z,12.9
2017-05-14T05:59:45.564Z,12.9
2017-05-14T06:01:04.218Z,12.9
2017-05-14T06:02:22.906Z,12.9
2017-05-14T06:03:41.557Z,12.9
2017-05-14T06:05:00.216Z,13
2017-05-14T06:06:18.896Z,13
2017-05-14T06:07:37.574Z,13
2017-05-14T06:08:56.224Z,13
2017-05-14T06:10:14.873Z,13
2017-05-14T06:11:33.526Z,13
2017-05-14T06:12:52.197Z,13
2017-05-14T06:14:10.846Z,13
2017-05-14T06:15:29.494Z,13.1
2017-05-14T06:16:48.230Z,13.1
2017-05-14T06:18:06.881Z,13.1
2017-05-14T06:19:25.523Z,13.2
2017-05-14T06:20:44.174Z,13.2
2017-05-14T06:22:02.846Z,13.2
2017-05-14T06:23:21.525Z,13.3
2017-05-14T06:24:40.170Z,13.3
2017-05-14T06:25:58.822Z,13.4
2017-05-14T06:27:17.507Z,13.4
2017-05-14T06:28:36.158Z,13.4
2017-05-14T06:29:54.840Z,13.4
2017-05-14T06:31:13.493Z,13.4
2017-05-14T06:32:32.181Z,13.5
2017-05-14T06:33:50.881Z,13.6
2017-05-14T06:35:09.536Z,13.6
2017-05-14T06:36:28.189Z,13.6
2017-05-14T06:37:46.836Z,13.6
2017-05-14T06:39:05.527Z,13.7
2017-05-14T06:40:24.172Z,13.8
2017-05-14T06:41:42.825Z,13.9
2017-05-14T06:43:01.478Z,13.9
2017-05-14T06:44:20.134Z,14
2017-05-14T06:45:38.840Z,14.1
2017-05-14T06:46:57.530Z,14.2
2017-05-14T06:48:16.176Z,14.2
2017-05-14T06:49:34.830Z,14.3
2017-05-14T06:50:53.512Z,14.4
2017-05-14T06:52:12.199Z,14.4
2017-05-14T06:53:30.851Z,14.5
2017-05-14T06:54:49.590Z,14.6
2017-05-14T06:56:08.246Z,14.7
2017-05-14T06:57:26.891Z,14.8
2017-05-14T06:58:45.571Z,14.9
2017-05-14T07:00:04.232Z,15
2017-05-14T07:01:22.911Z,15.1
2017-05-14T07:02:41.557Z,15.2
2017-05-14T07:04:00.212Z,15.3
2017-05-14T07:05:18.863Z,15.4
2017-05-14T07:06:37.511Z,15.4
2017-05-14T07:07:56.202Z,15.5
2017-05-14T07:09:14.853Z,15.6
2017-05-14T07:10:33.526Z,15.7
2017-05-14T07:11:52.209Z,15.8
2017-05-14T07:13:10.912Z,15.8
2017-05-14T07:14:29.567Z,15.9
2017-05-14T07:15:48.220Z,16
2017-05-14T07:17:06.925Z,16
2017-05-14T07:18:25.577Z,15.9
2017-05-14T07:19:44.223Z,15.9
2017-05-14T07:21:02.899Z,15.9
2017-05-14T07:22:21.583Z,16
2017-05-14T07:23:40.239Z,16.1
2017-05-14T07:24:58.899Z,16.1
2017-05-14T07:26:17.577Z,16.1
2017-05-14T07:27:36.262Z,16.1
2017-05-14T07:28:54.906Z,16.1
2017-05-14T07:30:13.553Z,16.1
2017-05-14T07:31:32.205Z,16.1
2017-05-14T07:32:50.902Z,16.2
2017-05-14T07:34:09.547Z,16.3
2017-05-14T07:35:28.203Z,16.3
2017-05-14T07:36:46.918Z,16.4
2017-05-14T07:38:05.568Z,16.4
2017-05-14T07:39:24.220Z,16.4
2017-05-14T07:40:42.865Z,16.4
2017-05-14T07:42:01.541Z,16.5
2017-05-14T07:43:20.190Z,16.6
2017-05-14T07:44:38.843Z,16.7
2017-05-14T07:45:57.495Z,16.9
2017-05-14T07:47:16.139Z,17
2017-05-14T07:48:34.846Z,17.2
2017-05-14T07:49:53.496Z,17.3
2017-05-14T07:51:12.191Z,17.4
2017-05-14T07:52:30.893Z,17.4
2017-05-14T07:53:49.545Z,17.3
2017-05-14T07:55:08.248Z,17.3
2017-05-14T07:56:26.925Z,17.3
2017-05-14T07:57:45.648Z,17.3
2017-05-14T07:59:04.304Z,17.3
2017-05-14T08:00:22.966Z,17.3
2017-05-14T08:01:41.669Z,17.3
2017-05-14T08:03:00.336Z,17.3
2017-05-14T08:04:18.994Z,17.2
2017-05-14T08:05:37.650Z,17.1
2017-05-14T08:06:56.302Z,17
2017-05-14T08:08:14.981Z,17
2017-05-14T08:09:33.637Z,16.9
2017-05-14T08:10:52.318Z,16.8
2017-05-14T08:12:11.001Z,16.8
2017-05-14T08:13:29.670Z,16.9
2017-05-14T08:14:48.322Z,16.9
2017-05-14T08:16:06.985Z,16.8
2017-05-14T08:17:25.629Z,16.7
2017-05-14T08:18:44.309Z,16.5
2017-05-14T08:20:03.013Z,16.3
2017-05-14T08:21:21.745Z,16.2
2017-05-14T08:22:40.415Z,16.3
2017-05-14T08:23:59.113Z,16.4
2017-05-14T08:25:17.798Z,16.6
2017-05-14T08:26:36.452Z,16.7
2017-05-14T08:27:55.187Z,16.8
2017-05-14T08:29:13.867Z,17
2017-05-14T08:30:32.555Z,17.1
2017-05-14T08:31:51.201Z,17.3
2017-05-14T08:33:09.869Z,17.6
2017-05-14T08:34:28.517Z,17.8
2017-05-14T08:35:47.171Z,18.1
2017-05-14T08:37:05.819Z,18.3
2017-05-14T08:38:24.472Z,18.4
2017-05-14T08:39:43.138Z,18.5
2017-05-14T08:41:01.837Z,18.5
2017-05-14T08:42:20.520Z,18.6
2017-05-14T08:43:39.221Z,18.4
2017-05-14T08:44:57.885Z,18.2
2017-05-14T08:46:16.606Z,17.9
2017-05-14T08:47:35.257Z,17.6
2017-05-14T08:48:53.963Z,17.4
2017-05-14T08:50:12.618Z,17.2
2017-05-14T08:51:31.267Z,17
2017-05-14T08:52:49.958Z,17
2017-05-14T08:54:08.630Z,17
2017-05-14T08:55:27.298Z,17.1
2017-05-14T08:56:45.951Z,17.3
2017-05-14T08:58:04.625Z,17.4
2017-05-14T08:59:23.279Z,17.5
2017-05-14T09:00:41.962Z,17.6
2017-05-14T09:02:00.623Z,17.8
2017-05-14T09:03:19.277Z,17.9
2017-05-14T09:04:37.956Z,18
2017-05-14T09:05:56.648Z,18.1
2017-05-14T09:07:15.294Z,18.2
2017-05-14T09:08:33.964Z,18.2
2017-05-14T09:09:52.617Z,18.2
2017-05-14T09:11:11.272Z,18.2
2017-05-14T09:12:30.001Z,18.3
2017-05-14T09:13:48.646Z,18.7
2017-05-14T09:15:07.301Z,19
2017-05-14T09:16:25.955Z,19.3
2017-05-14T09:17:44.607Z,19.5
2017-05-14T09:19:03.313Z,19.6
2017-05-14T09:20:21.960Z,19.7
2017-05-14T09:21:40.633Z,19.8
2017-05-14T09:22:59.290Z,20
2017-05-14T09:24:17.945Z,20.3
2017-05-14T09:25:36.641Z,20.5
2017-05-14T09:26:55.291Z,20.8
2017-05-14T09:28:13.997Z,20.8
2017-05-14T09:29:32.651Z,21
2017-05-14T09:30:51.314Z,20.9
2017-05-14T09:32:09.984Z,20.6
2017-05-14T09:33:28.658Z,20.2
2017-05-14T09:34:47.323Z,20
2017-05-14T09:36:05.970Z,19.9
2017-05-14T09:37:24.661Z,19.7
2017-05-14T09:38:43.361Z,19.5
2017-05-14T09:40:02.016Z,19.2
2017-05-14T09:41:20.668Z,19
2017-05-14T09:42:39.326Z,18.7
2017-05-14T09:43:57.982Z,18.5
2017-05-14T09:45:16.635Z,18.3
2017-05-14T09:46:35.308Z,17.9
2017-05-14T09:47:54.035Z,17.6
2017-05-14T09:49:12.684Z,17.4
2017-05-14T09:50:31.361Z,17.2
2017-05-14T09:51:50.010Z,17.1
2017-05-14T09:53:08.662Z,17
2017-05-14T09:54:27.357Z,16.8
2017-05-14T09:55:46.004Z,16.7
2017-05-14T09:57:04.658Z,16.7
2017-05-14T09:58:23.360Z,16.6
2017-05-14T09:59:42.053Z,16.6
2017-05-14T10:01:00.705Z,16.6
2017-05-14T10:02:19.364Z,16.6
2017-05-14T10:03:38.077Z,16.5
2017-05-14T10:04:56.762Z,16.4
2017-05-14T10:06:15.463Z,16.3
2017-05-14T10:07:34.118Z,16.2
2017-05-14T10:08:52.784Z,16
2017-05-14T10:10:11.474Z,15.9
2017-05-14T10:11:30.166Z,15.7
2017-05-14T10:12:48.812Z,15.7
2017-05-14T10:14:07.465Z,15.6
2017-05-14T10:15:26.139Z,15.5
2017-05-14T10:16:44.798Z,15.4
2017-05-14T10:18:03.493Z,15.3
2017-05-14T10:19:22.208Z,15.3
2017-05-14T10:20:40.858Z,15.3
2017-05-14T10:21:59.511Z,15.4
2017-05-14T10:23:18.160Z,15.4
2017-05-14T10:24:36.839Z,15.5
2017-05-14T10:25:55.518Z,15.5
2017-05-14T10:27:14.166Z,15.6
2017-05-14T10:28:32.820Z,15.7
2017-05-14T10:29:51.472Z,15.9
2017-05-14T10:31:10.165Z,16.1
2017-05-14T10:32:28.870Z,16.2
2017-05-14T10:33:47.568Z,16.4
2017-05-14T10:35:06.313Z,16.7
2017-05-14T10:36:24.968Z,16.9
2017-05-14T10:37:43.615Z,17.1
2017-05-14T10:39:02.274Z,17.4
2017-05-14T10:40:20.932Z,17.7
2017-05-14T10:41:39.621Z,18.2
2017-05-14T10:42:58.273Z,19.1
2017-05-14T10:44:16.921Z,19.9
2017-05-14T10:45:35.570Z,20.6
2017-05-14T10:46:54.262Z,21.3
2017-05-14T10:48:12.915Z,21.7
2017-05-14T10:49:31.573Z,22
2017-05-14T10:50:50.267Z,22.2
2017-05-14T10:52:08.918Z,22.5
2017-05-14T10:53:27.615Z,22.8
2017-05-14T10:54:46.317Z,23.1
2017-05-14T10:56:04.977Z,23.3
2017-05-14T10:57:23.663Z,23.7
2017-05-14T10:58:42.310Z,24
2017-05-14T11:00:00.979Z,24.2
2017-05-14T11:01:19.675Z,24.3
2017-05-14T11:02:38.338Z,24.4
2017-05-14T11:03:57.031Z,24.3
2017-05-14T11:05:15.747Z,24.3
2017-05-14T11:06:34.460Z,24.2
2017-05-14T11:07:53.107Z,23.9
2017-05-14T11:09:11.761Z,23.7
2017-05-14T11:10:30.450Z,22.8
2017-05-14T11:11:49.137Z,22.2
2017-05-14T11:13:07.796Z,22
2017-05-14T11:14:26.481Z,21.9
2017-05-14T11:15:45.185Z,21.7
2017-05-14T11:17:03.838Z,21.5
2017-05-14T11:18:22.497Z,21.3
2017-05-14T11:19:41.175Z,21.1
2017-05-14T11:20:59.832Z,21
2017-05-14T11:22:18.531Z,20.8
2017-05-14T11:23:37.178Z,20.6
2017-05-14T11:24:55.896Z,20.5
2017-05-14T11:26:14.548Z,20.6
2017-05-14T11:27:33.195Z,20.6
2017-05-14T11:28:51.857Z,20.6
2017-05-14T11:30:10.503Z,20.4
2017-05-14T11:31:29.146Z,20.1
2017-05-14T11:32:47.798Z,19.9
2017-05-14T11:34:06.472Z,19.6
2017-05-14T11:35:25.125Z,19.6
2017-05-14T11:36:43.777Z,19.5
2017-05-14T11:38:02.446Z,19.6
2017-05-14T11:39:21.125Z,19.7
2017-05-14T11:40:39.816Z,19.9
2017-05-14T11:41:58.489Z,19.7
2017-05-14T11:43:17.192Z,19.5
2017-05-14T11:44:35.896Z,19.4
2017-05-14T11:45:54.541Z,19.3
2017-05-14T11:47:13.199Z,19.3
2017-05-14T11:48:31.851Z,19.4
2017-05-14T11:49:50.541Z,19.4
2017-05-14T11:51:09.225Z,19.4
2017-05-14T11:52:27.872Z,19.5
2017-05-14T11:53:46.556Z,19.5
2017-05-14T11:55:05.204Z,19.6
2017-05-14T11:56:23.863Z,19.6
2017-05-14T11:57:42.558Z,19.8
2017-05-14T11:59:01.246Z,19.9
2017-05-14T12:00:19.949Z,19.9
2017-05-14T12:01:38.640Z,19.9
2017-05-14T12:02:57.289Z,20.1
2017-05-14T12:04:15.968Z,20.2
2017-05-14T12:05:34.619Z,20.3
2017-05-14T12:06:53.265Z,20.7
2017-05-14T12:08:11.915Z,21.4
2017-05-14T12:09:30.568Z,24.2
2017-05-14T12:10:49.263Z,26.6
2017-05-14T12:12:07.911Z,29.1
2017-05-14T12:13:26.556Z,30.1
2017-05-14T12:14:45.200Z,30.4
2017-05-14T12:16:03.852Z,30.1
2017-05-14T12:17:22.541Z,29.4
2017-05-14T12:18:41.200Z,29.3
2017-05-14T12:19:59.907Z,29.5
2017-05-14T12:21:18.594Z,29.4
2017-05-14T12:22:37.282Z,28
2017-05-14T12:23:55.950Z,26.8
2017-05-14T12:25:14.639Z,25.6
2017-05-14T12:26:33.343Z,24.6
2017-05-14T12:27:51.991Z,23.6
2017-05-14T12:29:10.676Z,22.9
2017-05-14T12:30:29.356Z,22.2
2017-05-14T12:31:48.046Z,21.6
2017-05-14T12:33:06.700Z,21.1
2017-05-14T12:34:25.405Z,20.6
2017-05-14T12:35:44.117Z,20.4
2017-05-14T12:37:02.799Z,20.2
2017-05-14T12:38:21.449Z,20.1
2017-05-14T12:39:40.099Z,20.3
2017-05-14T12:40:58.782Z,20.6
2017-05-14T12:42:17.469Z,20.7
2017-05-14T12:43:36.172Z,20.8
2017-05-14T12:44:54.838Z,20.7
2017-05-14T12:46:13.514Z,20.8
2017-05-14T12:47:32.167Z,21
2017-05-14T12:48:50.840Z,21.4
2017-05-14T12:50:09.486Z,21.8
2017-05-14T12:51:28.140Z,22.2
2017-05-14T12:52:46.783Z,22.3
2017-05-14T12:54:05.437Z,22.5
2017-05-14T12:55:24.113Z,22.8
2017-05-14T12:56:42.768Z,23.4
2017-05-14T12:58:01.425Z,23.9
2017-05-14T12:59:20.101Z,24.3
2017-05-14T13:00:38.753Z,24.3
2017-05-14T13:01:57.462Z,24.4
2017-05-14T13:03:16.116Z,24.1
2017-05-14T13:04:34.776Z,23.7
2017-05-14T13:05:53.441Z,23.7
2017-05-14T13:07:12.104Z,25.3
2017-05-14T13:08:30.769Z,28.3
2017-05-14T13:09:49.426Z,34.2
2017-05-14T13:11:08.075Z,34.8
2017-05-14T13:12:26.738Z,35.3
2017-05-14T13:13:45.407Z,35.6
2017-05-14T13:15:04.059Z,35.8
2017-05-14T13:16:22.709Z,36
2017-05-14T13:17:41.362Z,36.1
2017-05-14T13:19:00.012Z,36.3
2017-05-14T13:20:18.713Z,36.3
2017-05-14T13:21:37.363Z,36.2
2017-05-14T13:22:56.013Z,35.5
2017-05-14T13:24:14.682Z,35
2017-05-14T13:25:33.331Z,34.5
2017-05-14T13:26:52.030Z,34.7
2017-05-14T13:28:10.720Z,35.4
2017-05-14T13:29:29.413Z,35.7
2017-05-14T13:30:48.083Z,35.5
2017-05-14T13:32:06.738Z,35.2
2017-05-14T13:33:25.415Z,35
2017-05-14T13:34:44.066Z,35.3
2017-05-14T13:36:02.732Z,35.2
2017-05-14T13:37:21.435Z,34.8
2017-05-14T13:38:40.116Z,34.5
2017-05-14T13:39:58.808Z,32.8
2017-05-14T13:41:17.497Z,30.8
2017-05-14T13:42:36.158Z,29.5
2017-05-14T13:43:54.843Z,28.7
2017-05-14T13:45:13.497Z,34.3
2017-05-14T13:46:32.152Z,34.7
2017-05-14T13:47:50.802Z,34.5
2017-05-14T13:49:09.458Z,34.4
2017-05-14T13:50:28.114Z,34.1
2017-05-14T13:51:46.776Z,32.2
2017-05-14T13:53:05.455Z,30.9
2017-05-14T13:54:24.105Z,30.6
2017-05-14T13:55:42.804Z,29.6
2017-05-14T13:57:01.466Z,28.8
2017-05-14T13:58:20.117Z,28.1
2017-05-14T13:59:38.864Z,27.5
2017-05-14T14:00:57.514Z,26.7
2017-05-14T14:02:16.156Z,26.3
2017-05-14T14:03:34.809Z,26.2
2017-05-14T14:04:53.453Z,26
2017-05-14T14:06:12.130Z,30.2
2017-05-14T14:07:30.830Z,34.2
2017-05-14T14:08:49.488Z,32.5
2017-05-14T14:10:08.133Z,31.2
2017-05-14T14:11:26.786Z,31.7
2017-05-14T14:12:45.473Z,34.6
2017-05-14T14:14:04.122Z,35.1
2017-05-14T14:15:22.859Z,35.6
2017-05-14T14:16:41.532Z,36
2017-05-14T14:18:00.206Z,36
2017-05-14T14:19:18.860Z,36.2
2017-05-14T14:20:37.519Z,35.8
2017-05-14T14:21:56.169Z,35.5
2017-05-14T14:23:14.857Z,35.9
2017-05-14T14:24:33.505Z,36.1
2017-05-14T14:25:52.154Z,35.4
2017-05-14T14:27:10.832Z,34.9
2017-05-14T14:28:29.479Z,34.5
2017-05-14T14:29:48.145Z,34.6
2017-05-14T14:31:06.823Z,35
2017-05-14T14:32:25.506Z,34.6
2017-05-14T14:33:44.245Z,34.4
2017-05-14T14:35:02.898Z,34.4
2017-05-14T14:36:21.598Z,34.8
2017-05-14T14:37:40.283Z,34.6
2017-05-14T14:38:58.929Z,34.5
2017-05-14T14:40:17.587Z,34.9
2017-05-14T14:41:36.239Z,34.9
2017-05-14T14:42:54.899Z,35
2017-05-14T14:44:13.636Z,35.2
2017-05-14T14:45:32.331Z,35.6
2017-05-14T14:46:51.012Z,35.5
2017-05-14T14:48:09.658Z,35.5
2017-05-14T14:49:28.363Z,35.3
2017-05-14T14:50:47.017Z,35.2
2017-05-14T14:52:05.672Z,35
2017-05-14T14:53:24.322Z,34.7
2017-05-14T14:54:42.982Z,34.3
2017-05-14T14:56:01.643Z,32.9
2017-05-14T14:57:20.346Z,31.8
2017-05-14T14:58:39.029Z,30.6
2017-05-14T14:59:57.717Z,29.9
2017-05-14T15:01:16.365Z,29.1
2017-05-14T15:02:35.068Z,28.2
2017-05-14T15:03:53.722Z,28.1
2017-05-14T15:05:12.433Z,28
2017-05-14T15:06:31.091Z,27.5
2017-05-14T15:07:49.756Z,26.9
2017-05-14T15:09:08.434Z,26.6
2017-05-14T15:10:27.087Z,26.4
2017-05-14T15:11:45.734Z,25.7
2017-05-14T15:13:04.422Z,25.1
2017-05-14T15:14:23.083Z,24.9
2017-05-14T15:15:41.736Z,25
2017-05-14T15:17:00.386Z,25.1
2017-05-14T15:18:19.042Z,24.8
2017-05-14T15:19:37.737Z,24.4
2017-05-14T15:20:56.432Z,24.3
2017-05-14T15:22:15.115Z,24.2
2017-05-14T15:23:33.767Z,24.1
2017-05-14T15:24:52.423Z,24
2017-05-14T15:26:11.069Z,24
2017-05-14T15:27:29.727Z,24
2017-05-14T15:28:48.451Z,24.2
2017-05-14T15:30:07.098Z,24.3
2017-05-14T15:31:25.758Z,24.2
2017-05-14T15:32:44.422Z,24.3
2017-05-14T15:34:03.107Z,24.4
2017-05-14T15:35:21.760Z,24.3
2017-05-14T15:36:40.417Z,24.1
2017-05-14T15:37:59.069Z,23.7
2017-05-14T15:39:17.747Z,23.5
2017-05-14T15:40:36.407Z,23.4
2017-05-14T15:41:55.088Z,23.3
2017-05-14T15:43:13.748Z,23.1
2017-05-14T15:44:32.394Z,22.9
2017-05-14T15:45:51.096Z,22.6
2017-05-14T15:47:09.759Z,22.3
2017-05-14T15:48:28.423Z,22
2017-05-14T15:49:47.099Z,21.7
2017-05-14T15:51:05.751Z,21.6
2017-05-14T15:52:24.411Z,21.3
2017-05-14T15:53:43.065Z,21.1
2017-05-14T15:55:01.743Z,20.9
2017-05-14T15:56:20.400Z,20.7
2017-05-14T15:57:39.049Z,20.6
2017-05-14T15:58:57.732Z,20.5
2017-05-14T16:00:16.392Z,20.4
2017-05-14T16:01:35.058Z,20.3
2017-05-14T16:02:53.713Z,20.2
2017-05-14T16:04:12.408Z,20.1
2017-05-14T16:05:31.070Z,19.9
2017-05-14T16:06:49.742Z,19.7
2017-05-14T16:08:08.450Z,19.6
2017-05-14T16:09:27.107Z,19.3
2017-05-14T16:10:45.771Z,19.1
2017-05-14T16:12:04.429Z,19
2017-05-14T16:13:23.126Z,18.8
2017-05-14T16:14:41.776Z,18.7
2017-05-14T16:16:00.426Z,18.7
2017-05-14T16:17:19.078Z,18.5
2017-05-14T16:18:37.723Z,18.4
2017-05-14T16:19:56.417Z,18.4
2017-05-14T16:21:15.077Z,18.3
2017-05-14T16:22:33.738Z,18.2
2017-05-14T16:23:52.443Z,18
2017-05-14T16:25:11.138Z,17.9
2017-05-14T16:26:29.816Z,17.9
2017-05-14T16:27:48.466Z,17.8
2017-05-14T16:29:07.153Z,17.9
2017-05-14T16:30:25.804Z,17.7
2017-05-14T16:31:44.457Z,17.7
2017-05-14T16:33:03.188Z,17.6
2017-05-14T16:34:21.836Z,17.6
2017-05-14T16:35:40.490Z,17.5
2017-05-14T16:36:59.165Z,17.4
2017-05-14T16:38:17.815Z,17.4
2017-05-14T16:39:36.467Z,17.3
2017-05-14T16:40:55.123Z,17.3
2017-05-14T16:42:13.771Z,17.3
2017-05-14T16:43:32.418Z,17.4
2017-05-14T16:44:51.062Z,17.5
2017-05-14T16:46:09.783Z,17.7
2017-05-14T16:47:28.431Z,18
2017-05-14T16:48:47.081Z,18.4
2017-05-14T16:50:05.728Z,18.7
2017-05-14T16:51:24.371Z,18.9
2017-05-14T16:52:43.117Z,19
2017-05-14T16:54:01.776Z,19.1
2017-05-14T16:55:20.437Z,19.1
2017-05-14T16:56:39.107Z,19
2017-05-14T16:57:57.775Z,18.9
2017-05-14T16:59:16.430Z,18.7
2017-05-14T17:00:35.082Z,18.6
2017-05-14T17:01:53.733Z,18.4
2017-05-14T17:03:12.388Z,18.7
2017-05-14T17:04:31.041Z,22
2017-05-14T17:05:49.721Z,23.9
2017-05-14T17:07:08.375Z,25.7
2017-05-14T17:08:27.060Z,26.5
2017-05-14T17:09:45.720Z,27.1
2017-05-14T17:11:04.374Z,27.5
2017-05-14T17:12:23.072Z,27.7
2017-05-14T17:13:41.721Z,26.5
2017-05-14T17:15:00.383Z,25
2017-05-14T17:16:19.036Z,24.7
2017-05-14T17:17:37.690Z,25.1
2017-05-14T17:18:56.346Z,26.7
2017-05-14T17:20:15.001Z,28.3
2017-05-14T17:21:33.653Z,28.8
2017-05-14T17:22:52.313Z,28.2
2017-05-14T17:24:11.022Z,27.5
2017-05-14T17:25:29.729Z,26.5
2017-05-14T17:26:48.382Z,25.7
2017-05-14T17:28:07.029Z,24.8
2017-05-14T17:29:25.730Z,23.4
2017-05-14T17:30:44.394Z,22.3
2017-05-14T17:32:03.043Z,21.5
2017-05-14T17:33:21.712Z,20.8
2017-05-14T17:34:40.368Z,20.5
2017-05-14T17:35:59.016Z,20
2017-05-14T17:37:17.686Z,19.6
2017-05-14T17:38:36.330Z,19.4